createdAt,value
2022-12-03T00:11:59.753Z,62.78
2022-12-03T00:40:48.280Z,62.78
2022-12-03T01:09:30.200Z,62.78
2022-12-03T01:38:18.477Z,62.78
2022-12-03T02:06:58.660Z,62.77
2022-12-03T02:35:28.455Z,62.77
2022-12-03T03:04:15.591Z,62.76
2022-12-03T03:33:02.703Z,62.77
2022-12-03T04:01:44.660Z,62.77
2022-12-03T04:30:21.928Z,62.77
2022-12-03T04:59:17.242Z,62.77
2022-12-03T05:27:38.267Z,62.77
2022-12-03T05:56:22.800Z,62.8
2022-12-03T06:25:12.382Z,62.85
2022-12-03T06:53:57.398Z,62.83
2022-12-03T07:22:39.676Z,62.84
2022-12-03T07:51:32.917Z,62.85
2022-12-03T08:19:51.223Z,62.87
2022-12-03T08:48:27.504Z,62.83
2022-12-03T09:17:03.992Z,62.83
2022-12-03T09:45:33.156Z,62.81
2022-12-03T10:13:59.750Z,62.75
2022-12-03T10:42:36.060Z,62.73
2022-12-03T11:11:10.291Z,62.67
2022-12-03T11:39:47.241Z,62.64
2022-12-03T12:08:25.531Z,63.03
2022-12-03T12:37:01.976Z,63.87
2022-12-03T13:05:41.320Z,64.02
2022-12-03T13:34:21.467Z,64.03
2022-12-03T14:02:53.161Z,64.03
2022-12-03T14:31:24.880Z,64.26
2022-12-03T15:00:06.766Z,64.19
2022-12-03T15:28:49.053Z,64.18
2022-12-03T15:57:05.149Z,64.08
2022-12-03T16:25:46.167Z,64.07
2022-12-03T16:54:30.502Z,64.18
2022-12-03T17:23:04.345Z,64.32
2022-12-03T17:51:33.925Z,64.69
2022-12-03T18:20:05.258Z,64.48
2022-12-03T18:48:46.815Z,64.31
2022-12-03T19:17:26.902Z,64.19
2022-12-03T19:46:06.236Z,64.13
2022-12-03T20:14:41.764Z,64.04
2022-12-03T20:43:23.563Z,64.54
2022-12-03T21:12:07.188Z,64.29
2022-12-03T21:40:42.187Z,64.19
2022-12-03T22:09:27.529Z,64.05
2022-12-03T22:37:50.562Z,63.97
2022-12-03T23:06:34.693Z,63.94
2022-12-03T23:35:23.060Z,64.03
